Time;durP1;ratioP1;P1;durP2;ratioP2;P2;SDS_P1;SDS_P2;PMS_P1;PMS_P2;Temp;Humidity;BMP_temperature;BMP_pressure;BME280_temperature;BME280_humidity;BME280_pressure;Samples;Min_cycle;Max_cycle;Signal;HPM_P1;HPM_P2
2021/09/19 00:00:45;;;;;;;0.40;0.40;;;;;;;10.98;71.70;100029.77;113602;1193;94804;-73
2021/09/19 00:03:11;;;;;;;0.40;0.40;;;;;;;10.93;71.63;100025.47;113486;1193;138886;-73
2021/09/19 00:05:38;;;;;;;0.50;0.40;;;;;;;10.89;71.69;100027.91;113625;1193;94801;-73
2021/09/19 00:08:05;;;;;;;0.50;0.40;;;;;;;10.85;71.75;100024.85;113502;1193;140653;-73
2021/09/19 00:10:32;;;;;;;0.40;0.30;;;;;;;10.90;71.88;100025.22;113696;1195;94793;-74
2021/09/19 00:12:58;;;;;;;0.50;0.40;;;;;;;10.93;71.60;100024.59;113541;1195;94857;-73
2021/09/19 00:15:25;;;;;;;0.50;0.40;;;;;;;10.93;71.62;100025.50;113428;1193;137859;-73
2021/09/19 00:17:52;;;;;;;0.50;0.40;;;;;;;10.90;71.52;100024.69;113513;1193;95661;-73
2021/09/19 00:20:18;;;;;;;0.50;0.40;;;;;;;10.88;71.53;100023.34;113518;1193;139337;-73
2021/09/19 00:22:45;;;;;;;0.50;0.40;;;;;;;10.89;71.59;100024.00;113672;1195;94911;-73
2021/09/19 00:25:13;;;;;;;0.50;0.40;;;;;;;10.91;71.60;100022.36;113638;1194;96199;-73
2021/09/19 00:27:40;;;;;;;0.40;0.40;;;;;;;10.93;71.53;100026.38;113668;1193;137770;-73
2021/09/19 00:30:09;;;;;;;0.50;0.40;;;;;;;10.93;71.55;100026.03;113599;1193;94791;-73
2021/09/19 00:32:36;;;;;;;0.50;0.40;;;;;;;10.92;71.64;100025.86;113496;1195;140053;-73
2021/09/19 00:35:04;;;;;;;0.40;0.40;;;;;;;10.93;71.65;100029.39;113800;1194;94772;-74
2021/09/19 00:37:31;;;;;;;0.40;0.40;;;;;;;10.99;71.61;100031.31;113574;1193;94796;-73
2021/09/19 00:39:58;;;;;;;0.40;0.40;;;;;;;10.94;71.55;100028.82;113488;1193;137471;-73
2021/09/19 00:42:25;;;;;;;0.40;0.40;;;;;;;10.89;71.81;100029.17;113540;1195;94775;-75
2021/09/19 00:45:05;;;;;;;0.40;0.40;;;;;;;10.88;71.84;100024.05;113444;1193;138564;-75
2021/09/19 00:47:32;;;;;;;0.40;0.40;;;;;;;10.86;71.81;100025.89;113607;1193;95340;-74
2021/09/19 00:49:59;;;;;;;0.40;0.40;;;;;;;10.85;71.78;100023.78;113476;1193;139347;-74
2021/09/19 00:52:27;;;;;;;0.40;0.40;;;;;;;10.85;71.63;100025.94;113561;1193;94815;-75
2021/09/19 00:54:58;;;;;;;0.40;0.40;;;;;;;10.89;71.63;100023.66;113561;1195;94800;-74
2021/09/19 00:57:26;;;;;;;0.50;0.40;;;;;;;10.97;71.56;100027.83;113481;1193;138021;-74
2021/09/19 00:59:53;;;;;;;0.40;0.40;;;;;;;11.01;71.47;100029.11;113484;1193;107621;-74
2021/09/19 01:04:48;;;;;;;0.50;0.50;;;;;;;10.95;71.27;100031.46;113246;1193;95443;-84
2021/09/19 01:07:16;;;;;;;0.50;0.40;;;;;;;10.92;71.25;100031.20;113300;1195;94881;-86
2021/09/19 01:09:42;;;;;;;0.40;0.40;;;;;;;10.84;71.36;100030.38;114719;1193;139731;-83
2021/09/19 01:12:10;;;;;;;0.50;0.40;;;;;;;10.85;71.41;100033.75;114045;1193;94792;-85
2021/09/19 01:14:39;;;;;;;0.40;0.40;;;;;;;10.91;71.26;100031.60;113306;1193;140328;-81
2021/09/19 01:17:06;;;;;;;0.50;0.40;;;;;;;10.93;71.30;100029.23;114898;1193;93134;-84
2021/09/19 01:19:35;;;;;;;0.50;0.40;;;;;;;10.94;71.39;100028.82;114887;1193;93185;-84
2021/09/19 01:22:05;;;;;;;0.50;0.40;;;;;;;10.99;71.10;100031.33;114738;1193;137131;-84
2021/09/19 01:24:33;;;;;;;0.50;0.40;;;;;;;11.00;70.89;100031.27;114863;1193;93055;-83
2021/09/19 01:26:59;;;;;;;0.40;0.40;;;;;;;11.04;70.82;100030.78;113765;1193;138594;-83
2021/09/19 01:29:27;;;;;;;0.50;0.40;;;;;;;11.09;70.87;100035.25;113519;1193;111115;-82
2021/09/19 01:31:54;;;;;;;0.60;0.60;;;;;;;11.13;70.62;100035.27;113357;1193;138332;-85
2021/09/19 01:34:20;;;;;;;0.50;0.40;;;;;;;11.12;70.62;100032.48;113477;1193;94907;-85
2021/09/19 01:36:47;;;;;;;0.50;0.40;;;;;;;11.13;70.46;100035.83;113578;1193;95212;-82
2021/09/19 01:39:13;;;;;;;0.50;0.40;;;;;;;11.12;70.29;100030.89;113432;1193;138008;-82
2021/09/19 01:41:40;;;;;;;0.50;0.40;;;;;;;11.00;70.39;100028.77;113514;1193;109533;-84
2021/09/19 01:44:07;;;;;;;0.50;0.50;;;;;;;11.05;70.47;100031.84;113363;1193;140666;-82
2021/09/19 01:46:35;;;;;;;0.50;0.40;;;;;;;11.12;70.72;100037.45;113501;1193;94889;-83
2021/09/19 01:49:03;;;;;;;0.50;0.40;;;;;;;11.20;70.70;100037.17;113501;1193;95174;-83
2021/09/19 01:51:29;;;;;;;0.50;0.50;;;;;;;11.15;70.16;100034.13;113416;1193;138754;-83
2021/09/19 01:53:56;;;;;;;0.50;0.40;;;;;;;11.07;70.24;100028.92;113456;1193;94816;-83
2021/09/19 01:56:24;;;;;;;0.50;0.50;;;;;;;11.01;70.24;100029.27;113353;1193;140169;-84
2021/09/19 01:58:53;;;;;;;0.50;0.40;;;;;;;10.95;70.08;100029.49;113470;1193;94810;-84
2021/09/19 02:01:22;;;;;;;0.50;0.40;;;;;;;10.92;70.31;100034.38;113461;1193;108264;-82
2021/09/19 02:03:50;;;;;;;0.50;0.40;;;;;;;10.96;70.46;100033.02;113192;1195;138251;-83
2021/09/19 02:06:17;;;;;;;0.40;0.40;;;;;;;11.03;70.45;100037.21;113376;1193;94886;-82
2021/09/19 02:08:45;;;;;;;0.50;0.40;;;;;;;11.07;70.34;100036.73;113345;1193;139370;-83
2021/09/19 02:11:13;;;;;;;0.40;0.40;;;;;;;11.03;70.01;100033.49;113498;1193;94791;-82
2021/09/19 02:13:43;;;;;;;0.50;0.50;;;;;;;10.94;70.28;100030.79;113292;1193;139751;-83
2021/09/19 02:16:11;;;;;;;0.50;0.50;;;;;;;10.97;70.38;100031.91;114607;1193;94215;-83
2021/09/19 02:18:37;;;;;;;0.40;0.40;;;;;;;11.03;70.23;100026.93;113467;1193;95304;-83
2021/09/19 02:21:06;;;;;;;0.50;0.40;;;;;;;11.03;70.06;100026.02;113415;1193;138571;-82
2021/09/19 02:23:33;;;;;;;0.50;0.40;;;;;;;10.92;70.23;100028.55;113441;1193;109787;-82
2021/09/19 02:25:59;;;;;;;0.50;0.50;;;;;;;10.89;70.33;100032.02;113367;1193;138999;-82
2021/09/19 02:28:26;;;;;;;0.40;0.40;;;;;;;10.90;70.39;100033.74;113498;1193;94764;-83
2021/09/19 02:30:52;;;;;;;0.40;0.40;;;;;;;10.95;70.15;100038.22;113473;1194;94783;-83
2021/09/19 02:33:19;;;;;;;0.50;0.40;;;;;;;10.86;70.38;100032.64;113439;1193;137386;-83
2021/09/19 02:35:46;;;;;;;0.50;0.50;;;;;;;10.85;70.48;100039.98;113375;1193;109740;-82
2021/09/19 02:38:12;;;;;;;0.40;0.40;;;;;;;10.84;70.41;100038.55;113300;1193;139091;-82
2021/09/19 02:40:39;;;;;;;0.40;0.40;;;;;;;10.84;70.23;100039.97;113498;1194;95286;-83
2021/09/19 02:43:06;;;;;;;0.50;0.40;;;;;;;10.80;70.47;100038.15;113446;1193;94904;-83
2021/09/19 02:45:32;;;;;;;0.40;0.40;;;;;;;10.79;70.64;100033.95;113366;1193;139867;-84
2021/09/19 02:47:59;;;;;;;0.40;0.40;;;;;;;10.80;70.75;100036.39;113405;1193;110036;-83
2021/09/19 02:50:26;;;;;;;0.50;0.40;;;;;;;10.85;70.81;100033.91;113450;1193;138367;-82
2021/09/19 02:52:53;;;;;;;0.40;0.40;;;;;;;10.86;70.65;100032.98;113569;1193;95007;-83
2021/09/19 02:55:21;;;;;;;0.50;0.40;;;;;;;10.84;70.65;100033.94;113469;1193;94845;-83
2021/09/19 02:57:50;;;;;;;0.50;0.40;;;;;;;10.79;70.64;100035.88;113366;1193;139645;-82
2021/09/19 03:00:19;;;;;;;0.40;0.40;;;;;;;10.83;70.72;100032.55;113481;1195;94889;-85
2021/09/19 03:02:48;;;;;;;0.40;0.40;;;;;;;10.84;70.56;100030.55;114871;1193;138132;-83
2021/09/19 03:05:15;;;;;;;0.50;0.40;;;;;;;10.81;70.66;100029.45;114940;1193;109286;-84
2021/09/19 03:07:43;;;;;;;0.40;0.40;;;;;;;10.84;70.51;100025.95;113354;1193;138020;-84
2021/09/19 03:10:11;;;;;;;0.40;0.40;;;;;;;10.82;70.48;100023.54;113487;1193;94897;-82
2021/09/19 03:12:38;;;;;;;0.50;0.40;;;;;;;10.83;70.29;100024.40;113455;1193;94787;-82
2021/09/19 03:15:05;;;;;;;0.40;0.40;;;;;;;10.78;70.53;100023.52;113349;1193;138798;-82
2021/09/19 03:17:32;;;;;;;0.50;0.40;;;;;;;10.78;70.63;100026.32;113473;1193;95239;-83
2021/09/19 03:19:59;;;;;;;0.50;0.40;;;;;;;10.81;70.52;100027.13;113328;1193;138726;-83
2021/09/19 03:22:26;;;;;;;0.50;0.40;;;;;;;10.81;70.39;100024.64;113538;1193;94937;-83
2021/09/19 03:24:53;;;;;;;0.40;0.40;;;;;;;10.78;70.54;100024.21;113374;1193;94832;-83
2021/09/19 03:27:19;;;;;;;0.40;0.40;;;;;;;10.79;70.59;100024.51;113302;1193;138131;-83
2021/09/19 03:29:46;;;;;;;0.50;0.40;;;;;;;10.77;70.49;100023.89;113516;1193;94771;-85
2021/09/19 03:32:12;;;;;;;0.40;0.40;;;;;;;10.77;70.72;100027.61;113364;1193;138593;-83
2021/09/19 03:34:39;;;;;;;0.50;0.50;;;;;;;10.81;70.69;100026.39;113425;1193;94900;-85
2021/09/19 03:37:05;;;;;;;0.50;0.50;;;;;;;10.81;70.53;100024.13;113496;1193;95030;-83
2021/09/19 03:39:32;;;;;;;0.50;0.50;;;;;;;10.80;70.65;100025.00;113231;1193;144190;-85
2021/09/19 03:41:59;;;;;;;0.40;0.40;;;;;;;10.82;70.66;100024.06;113540;1193;95455;-85
2021/09/19 03:44:25;;;;;;;0.50;0.50;;;;;;;10.84;70.53;100023.83;113399;1193;138811;-83
2021/09/19 03:46:52;;;;;;;0.50;0.40;;;;;;;10.85;70.49;100022.20;113534;1193;94786;-85
2021/09/19 03:49:18;;;;;;;0.50;0.50;;;;;;;10.80;70.47;100025.56;113538;1193;94771;-84
2021/09/19 03:51:45;;;;;;;0.60;0.60;;;;;;;10.79;70.54;100025.40;113377;1193;138115;-83
2021/09/19 03:54:11;;;;;;;0.50;0.50;;;;;;;10.75;70.56;100028.56;113439;1193;95335;-86
2021/09/19 03:56:38;;;;;;;0.50;0.50;;;;;;;10.77;70.47;100030.09;113350;1193;138820;-84
2021/09/19 03:59:05;;;;;;;0.60;0.60;;;;;;;10.77;70.37;100029.91;113529;1193;94908;-85
2021/09/19 04:01:31;;;;;;;0.50;0.50;;;;;;;10.75;70.42;100028.55;113407;1193;94983;-83
2021/09/19 04:04:00;;;;;;;0.50;0.50;;;;;;;10.77;70.36;100029.94;113262;1193;139791;-85
2021/09/19 04:06:26;;;;;;;0.50;0.50;;;;;;;10.79;70.26;100028.96;113591;1193;95325;-85
2021/09/19 04:08:53;;;;;;;0.50;0.40;;;;;;;10.83;70.33;100033.80;113347;1193;139043;-84
2021/09/19 04:11:19;;;;;;;0.50;0.50;;;;;;;10.78;70.27;100034.67;113564;1193;94819;-83
2021/09/19 04:13:46;;;;;;;0.50;0.50;;;;;;;10.79;70.44;100033.40;113296;1193;139894;-83
2021/09/19 04:16:13;;;;;;;0.50;0.50;;;;;;;10.81;70.21;100034.76;113443;1193;96071;-84
2021/09/19 04:18:39;;;;;;;0.50;0.40;;;;;;;10.87;70.22;100031.70;113475;1193;95218;-83
2021/09/19 04:21:06;;;;;;;0.50;0.40;;;;;;;10.93;70.04;100032.06;113506;1193;138052;-82
2021/09/19 04:23:33;;;;;;;0.40;0.40;;;;;;;10.92;70.02;100029.44;113494;1193;94963;-83
2021/09/19 04:25:59;;;;;;;0.50;0.40;;;;;;;10.90;69.87;100030.73;113354;1193;139609;-83
2021/09/19 04:28:26;;;;;;;0.50;0.40;;;;;;;10.88;70.00;100031.50;113523;1193;94928;-82
2021/09/19 04:30:52;;;;;;;0.50;0.40;;;;;;;10.92;69.87;100035.48;113481;1193;94863;-83
2021/09/19 04:33:19;;;;;;;0.50;0.40;;;;;;;10.82;69.92;100036.86;113301;1193;137999;-85
2021/09/19 04:35:46;;;;;;;0.50;0.40;;;;;;;10.80;70.03;100036.91;113405;1193;94775;-83
2021/09/19 04:38:13;;;;;;;0.50;0.40;;;;;;;10.78;69.91;100038.04;113179;1193;139110;-83
2021/09/19 04:40:39;;;;;;;0.40;0.40;;;;;;;10.80;69.86;100037.80;113481;1193;94800;-83
2021/09/19 04:43:11;;;;;;;0.50;0.40;;;;;;;10.81;69.88;100036.89;113432;1193;94800;-82
2021/09/19 04:45:39;;;;;;;0.50;0.50;;;;;;;10.77;69.89;100036.33;113395;1193;139734;-82
2021/09/19 04:48:06;;;;;;;0.50;0.50;;;;;;;10.77;70.07;100038.27;113516;1193;108954;-84
2021/09/19 04:50:33;;;;;;;0.50;0.40;;;;;;;10.79;69.72;100035.01;113262;1193;141899;-84
2021/09/19 04:52:59;;;;;;;0.50;0.40;;;;;;;10.84;69.72;100037.14;113529;1193;94957;-82
2021/09/19 04:55:26;;;;;;;0.50;0.40;;;;;;;10.84;69.85;100039.81;113506;1193;95431;-82
2021/09/19 04:57:53;;;;;;;0.50;0.50;;;;;;;10.87;69.66;100041.13;113439;1193;140601;-83
2021/09/19 05:00:19;;;;;;;0.50;0.40;;;;;;;10.93;69.63;100040.40;113615;1193;94886;-82
2021/09/19 05:02:46;;;;;;;0.40;0.40;;;;;;;11.00;69.27;100038.73;113404;1193;138147;-82
2021/09/19 05:05:13;;;;;;;0.40;0.40;;;;;;;10.96;69.21;100039.77;113569;1193;94781;-83
2021/09/19 05:07:39;;;;;;;0.50;0.50;;;;;;;10.94;69.35;100039.84;113498;1193;138111;-83
2021/09/19 05:10:06;;;;;;;0.50;0.50;;;;;;;10.92;69.26;100041.34;113595;1193;94921;-84
2021/09/19 05:12:33;;;;;;;0.40;0.40;;;;;;;10.92;69.32;100039.56;113577;1193;94812;-84
2021/09/19 05:14:59;;;;;;;0.50;0.40;;;;;;;10.92;69.37;100041.67;113422;1193;136927;-84
2021/09/19 05:17:26;;;;;;;0.50;0.50;;;;;;;10.87;69.10;100045.58;113567;1193;95361;-84
2021/09/19 05:19:53;;;;;;;0.50;0.50;;;;;;;10.82;69.47;100043.59;113376;1193;139683;-84
2021/09/19 05:22:19;;;;;;;0.50;0.50;;;;;;;10.89;69.43;100046.20;113540;1193;95463;-84
2021/09/19 05:24:46;;;;;;;0.50;0.40;;;;;;;10.93;69.43;100044.69;113489;1193;94921;-82
2021/09/19 05:27:12;;;;;;;0.40;0.40;;;;;;;10.87;69.25;100043.60;113476;1193;138840;-85
2021/09/19 05:29:39;;;;;;;0.50;0.40;;;;;;;10.87;69.43;100036.51;113535;1193;94865;-86
2021/09/19 05:32:06;;;;;;;0.50;0.50;;;;;;;10.91;69.32;100040.13;113442;1193;141220;-83
2021/09/19 05:34:32;;;;;;;0.40;0.40;;;;;;;10.91;69.24;100039.41;113526;1193;95514;-85
2021/09/19 05:36:59;;;;;;;0.50;0.50;;;;;;;10.91;69.14;100039.59;113526;1193;94867;-83
2021/09/19 05:39:26;;;;;;;0.50;0.40;;;;;;;10.91;69.21;100040.64;113435;1193;139980;-83
2021/09/19 05:41:52;;;;;;;0.50;0.40;;;;;;;10.97;69.26;100037.25;113568;1193;94794;-84
2021/09/19 05:44:19;;;;;;;0.40;0.40;;;;;;;10.97;68.91;100040.98;113373;1193;140805;-87
2021/09/19 05:46:45;;;;;;;0.50;0.40;;;;;;;10.94;68.77;100042.15;113490;1193;95345;-84
2021/09/19 05:49:12;;;;;;;0.40;0.40;;;;;;;10.93;69.04;100045.37;113429;1193;94813;-86
2021/09/19 05:51:39;;;;;;;0.50;0.40;;;;;;;10.89;68.92;100039.66;113412;1193;139429;-84
2021/09/19 05:54:05;;;;;;;0.50;0.40;;;;;;;10.93;69.35;100041.64;113538;1193;94796;-86
2021/09/19 05:56:32;;;;;;;0.40;0.40;;;;;;;11.01;68.78;100039.77;113433;1193;137946;-84
2021/09/19 05:58:59;;;;;;;0.40;0.40;;;;;;;11.08;68.97;100041.32;113552;1193;94785;-83
2021/09/19 06:01:25;;;;;;;0.40;0.40;;;;;;;11.12;68.66;100036.91;113479;1193;94792;-83
2021/09/19 06:03:52;;;;;;;0.50;0.40;;;;;;;11.16;68.72;100041.05;113448;1193;140054;-83
2021/09/19 06:06:20;;;;;;;0.40;0.40;;;;;;;11.22;68.44;100041.38;113481;1193;95361;-84
2021/09/19 06:08:47;;;;;;;0.40;0.40;;;;;;;11.24;68.12;100045.39;113396;1193;137808;-85
2021/09/19 06:11:14;;;;;;;0.50;0.50;;;;;;;11.16;68.04;100042.11;113548;1193;94790;-83
2021/09/19 06:13:40;;;;;;;0.50;0.40;;;;;;;11.18;68.23;100043.64;113307;1193;138632;-84
2021/09/19 06:16:07;;;;;;;0.40;0.40;;;;;;;11.22;67.75;100041.55;113544;1193;94787;-84
2021/09/19 06:18:34;;;;;;;0.40;0.40;;;;;;;11.22;67.90;100039.23;113579;1193;95424;-84
2021/09/19 06:21:03;;;;;;;0.50;0.50;;;;;;;11.21;67.92;100038.40;113461;1193;138415;-86
2021/09/19 06:23:30;;;;;;;0.50;0.50;;;;;;;11.16;68.01;100036.98;113593;1193;109179;-83
2021/09/19 06:25:57;;;;;;;0.50;0.40;;;;;;;11.20;68.23;100040.55;113369;1193;140476;-84
2021/09/19 06:28:24;;;;;;;0.50;0.40;;;;;;;11.29;68.07;100040.94;113412;1194;95655;-84
2021/09/19 06:30:51;;;;;;;0.50;0.40;;;;;;;11.30;67.88;100046.08;113496;1193;96705;-85
2021/09/19 06:33:17;;;;;;;0.50;0.40;;;;;;;11.26;67.72;100047.30;113446;1193;136750;-85
2021/09/19 06:35:46;;;;;;;0.50;0.50;;;;;;;11.33;68.01;100047.21;113468;1193;94883;-85
2021/09/19 06:38:12;;;;;;;0.50;0.50;;;;;;;11.37;67.82;100049.21;113362;1193;139770;-84
2021/09/19 06:40:39;;;;;;;0.40;0.40;;;;;;;11.40;67.62;100045.73;113553;1193;94909;-85
2021/09/19 06:43:05;;;;;;;0.50;0.40;;;;;;;11.38;67.35;100050.60;113479;1193;94826;-87
2021/09/19 06:45:32;;;;;;;0.40;0.40;;;;;;;11.32;67.33;100048.14;113383;1193;138610;-83
2021/09/19 06:47:59;;;;;;;0.50;0.40;;;;;;;11.34;67.63;100044.33;113490;1193;108946;-86
2021/09/19 06:50:25;;;;;;;0.50;0.50;;;;;;;11.40;67.20;100041.63;113285;1193;139355;-82
2021/09/19 06:52:52;;;;;;;0.50;0.40;;;;;;;11.43;66.71;100038.32;113439;1193;94852;-83
2021/09/19 06:55:19;;;;;;;0.50;0.50;;;;;;;11.44;66.99;100039.52;113459;1193;94782;-85
2021/09/19 06:57:46;;;;;;;0.50;0.40;;;;;;;11.47;67.12;100041.56;113481;1193;137923;-84
2021/09/19 07:00:13;;;;;;;0.40;0.40;;;;;;;11.54;66.78;100040.07;113525;1193;109273;-86
2021/09/19 07:02:40;;;;;;;0.40;0.40;;;;;;;11.52;65.90;100043.33;113418;1193;138138;-85
2021/09/19 07:05:08;;;;;;;0.50;0.40;;;;;;;11.50;66.07;100043.59;113467;1193;95348;-85
2021/09/19 07:07:35;;;;;;;0.50;0.40;;;;;;;11.51;66.27;100045.52;113419;1193;94806;-88
2021/09/19 07:10:02;;;;;;;0.50;0.40;;;;;;;11.55;65.93;100046.09;113236;1194;138721;-87
2021/09/19 07:12:29;;;;;;;0.40;0.40;;;;;;;11.55;65.83;100048.03;113592;1193;94826;-85
2021/09/19 07:14:55;;;;;;;0.40;0.40;;;;;;;11.52;65.82;100047.25;113335;1193;137742;-86
2021/09/19 07:17:22;;;;;;;0.50;0.40;;;;;;;11.51;65.78;100046.38;113447;1193;94865;-85
2021/09/19 07:19:49;;;;;;;0.40;0.40;;;;;;;11.56;65.65;100043.73;113394;1193;139467;-87
2021/09/19 07:22:15;;;;;;;0.40;0.30;;;;;;;11.65;65.72;100047.31;113507;1194;109995;-86
2021/09/19 07:24:42;;;;;;;0.40;0.30;;;;;;;11.66;65.24;100043.72;113427;1193;95023;-84
2021/09/19 07:27:08;;;;;;;0.50;0.40;;;;;;;11.60;65.25;100048.39;113366;1193;137826;-85
2021/09/19 07:29:35;;;;;;;0.50;0.40;;;;;;;11.59;65.45;100047.54;113473;1193;94770;-83
2021/09/19 07:32:05;;;;;;;3.00;0.80;;;;;;;11.66;65.46;100044.06;113408;1193;140815;-87
2021/09/19 07:34:34;;;;;;;0.40;0.40;;;;;;;11.73;65.27;100043.64;113483;1193;109884;-86
2021/09/19 07:37:02;;;;;;;0.50;0.40;;;;;;;11.80;65.03;100043.93;113504;1193;94819;-82
2021/09/19 07:39:32;;;;;;;0.50;0.40;;;;;;;11.74;64.68;100047.16;113453;1193;139514;-83
2021/09/19 07:41:59;;;;;;;0.40;0.40;;;;;;;11.74;64.98;100044.34;113307;1193;109175;-84
2021/09/19 07:44:26;;;;;;;0.40;0.40;;;;;;;11.80;64.52;100045.88;113361;1193;140118;-84
2021/09/19 07:46:53;;;;;;;0.40;0.40;;;;;;;11.82;64.51;100045.64;113412;1193;95222;-83
2021/09/19 07:49:21;;;;;;;0.40;0.40;;;;;;;11.84;64.19;100047.84;113326;1193;94788;-84
2021/09/19 07:51:48;;;;;;;0.60;0.50;;;;;;;11.76;63.88;100042.83;113279;1193;139228;-84
2021/09/19 07:54:15;;;;;;;0.50;0.40;;;;;;;11.75;64.08;100042.34;113370;1193;94823;-85
2021/09/19 07:56:42;;;;;;;0.40;0.30;;;;;;;11.82;63.90;100042.80;113310;1193;138254;-86
2021/09/19 07:59:09;;;;;;;0.40;0.30;;;;;;;11.78;63.56;100041.68;113402;1193;94566;-87
2021/09/19 08:01:35;;;;;;;0.40;0.30;;;;;;;11.75;63.94;100038.80;113362;1193;94837;-88
2021/09/19 08:04:03;;;;;;;0.50;0.50;;;;;;;11.67;64.14;100046.17;113130;1195;139202;-84
2021/09/19 08:06:29;;;;;;;0.40;0.40;;;;;;;11.70;63.92;100047.84;113420;1193;95495;-85
2021/09/19 08:08:56;;;;;;;0.40;0.30;;;;;;;11.76;63.76;100050.33;113323;1193;138407;-87
2021/09/19 08:11:23;;;;;;;0.40;0.40;;;;;;;11.74;63.54;100048.42;113413;1193;94835;-85
2021/09/19 08:13:54;;;;;;;0.40;0.30;;;;;;;11.74;63.78;100051.80;113314;1193;137541;-86
2021/09/19 08:16:20;;;;;;;0.40;0.40;;;;;;;11.75;64.26;100052.84;113465;1193;109926;-87
2021/09/19 08:18:47;;;;;;;0.40;0.30;;;;;;;11.78;63.44;100055.02;113545;1193;94859;-88
2021/09/19 08:21:14;;;;;;;0.50;0.30;;;;;;;11.79;63.67;100057.12;113350;1194;138567;-89
2021/09/19 08:23:41;;;;;;;0.40;0.30;;;;;;;11.85;63.94;100057.09;113446;1193;94757;-87
2021/09/19 08:26:07;;;;;;;0.40;0.40;;;;;;;11.82;63.83;100053.64;113299;1193;138802;-85
2021/09/19 08:28:34;;;;;;;0.40;0.30;;;;;;;11.83;63.67;100057.67;113552;1193;94816;-88
2021/09/19 08:31:01;;;;;;;0.40;0.40;;;;;;;11.87;63.47;100055.23;113388;1193;95343;-86
2021/09/19 08:33:28;;;;;;;0.40;0.40;;;;;;;11.86;63.42;100055.10;113424;1193;137162;-86
2021/09/19 08:35:56;;;;;;;0.40;0.40;;;;;;;11.82;63.51;100058.60;113547;1193;94812;-86
2021/09/19 08:38:23;;;;;;;0.40;0.40;;;;;;;11.85;63.69;100058.84;113467;1193;137299;-86
2021/09/19 08:40:51;;;;;;;0.40;0.40;;;;;;;11.92;63.27;100065.37;113547;1193;94800;-85
2021/09/19 08:43:18;;;;;;;0.40;0.30;;;;;;;11.92;62.74;100067.52;113536;1193;95242;-86
2021/09/19 08:45:47;;;;;;;0.40;0.40;;;;;;;11.91;62.57;100064.34;113365;1193;139117;-85
2021/09/19 08:48:21;;;;;;;0.40;0.40;;;;;;;11.94;62.51;100070.10;113527;1193;109860;-86
2021/09/19 08:50:55;;;;;;;0.50;0.40;;;;;;;12.00;62.60;100073.09;113452;1193;138224;-86
2021/09/19 08:53:25;;;;;;;0.40;0.30;;;;;;;12.08;62.23;100070.33;113498;1193;94819;-87
2021/09/19 08:55:52;;;;;;;0.40;0.40;;;;;;;12.11;62.16;100072.88;113332;1193;138062;-83
2021/09/19 08:58:18;;;;;;;0.40;0.40;;;;;;;12.12;61.71;100072.30;113357;1193;94778;-86
2021/09/19 09:00:49;;;;;;;0.50;0.40;;;;;;;12.08;61.69;100071.20;113429;1193;95058;-85
2021/09/19 09:03:27;;;;;;;0.50;0.40;;;;;;;12.06;61.53;100077.52;113318;1193;140177;-84
2021/09/19 09:06:05;;;;;;;0.40;0.40;;;;;;;12.15;61.41;100073.80;113315;1193;108253;-86
2021/09/19 09:08:33;;;;;;;0.40;0.30;;;;;;;12.11;61.21;100079.80;113381;1193;138438;-86
2021/09/19 09:11:05;;;;;;;0.40;0.30;;;;;;;12.13;61.45;100079.20;113297;1193;94994;-85
2021/09/19 09:13:37;;;;;;;0.40;0.40;;;;;;;12.16;61.57;100082.27;113198;1193;95382;-89
2021/09/19 09:16:11;;;;;;;0.40;0.40;;;;;;;12.25;61.88;100082.66;113176;1193;138131;-86
2021/09/19 09:18:43;;;;;;;0.40;0.30;;;;;;;12.43;61.68;100081.98;113059;1193;110031;-86
2021/09/19 09:21:13;;;;;;;0.40;0.30;;;;;;;12.53;61.28;100086.55;114699;1193;138375;-86
2021/09/19 09:23:47;;;;;;;0.40;0.30;;;;;;;12.57;60.85;100088.73;114791;1193;92948;-87
2021/09/19 09:26:31;;;;;;;0.40;0.30;;;;;;;12.52;60.52;100090.00;113489;1193;140189;-89
2021/09/19 09:29:00;;;;;;;0.40;0.30;;;;;;;12.44;60.11;100092.81;113148;1193;109660;-85
2021/09/19 09:31:36;;;;;;;0.40;0.30;;;;;;;12.47;59.98;100094.27;113240;1193;94819;-89
2021/09/19 09:34:13;;;;;;;0.40;0.30;;;;;;;12.48;59.79;100092.44;113182;1193;139148;-88
2021/09/19 09:36:44;;;;;;;0.40;0.30;;;;;;;12.41;59.54;100097.55;113313;1193;109507;-86
2021/09/19 09:39:28;;;;;;;0.40;0.30;;;;;;;12.38;60.00;100101.77;113283;1193;139715;-84
2021/09/19 09:42:06;;;;;;;0.50;0.40;;;;;;;12.34;60.11;100100.64;113551;1193;94793;-89
2021/09/19 09:44:44;;;;;;;0.40;0.30;;;;;;;12.34;60.45;100105.46;113407;1193;139926;-87
2021/09/19 09:47:19;;;;;;;0.40;0.30;;;;;;;12.47;60.42;100107.27;113425;1193;107996;-85
2021/09/19 09:49:48;;;;;;;0.40;0.30;;;;;;;12.53;60.02;100102.58;113386;1193;138544;-84
2021/09/19 09:52:23;;;;;;;0.40;0.30;;;;;;;12.48;59.53;100104.23;113547;1193;95350;-85
2021/09/19 09:54:54;;;;;;;0.40;0.30;;;;;;;12.48;59.82;100101.53;113437;1193;95586;-85
2021/09/19 09:57:36;;;;;;;0.40;0.40;;;;;;;12.44;59.86;100099.23;113292;1193;137991;-85
2021/09/19 10:00:08;;;;;;;0.40;0.30;;;;;;;12.50;60.45;100094.69;113559;1193;108881;-85
2021/09/19 10:02:36;;;;;;;0.40;0.30;;;;;;;12.63;60.40;100091.89;113344;1193;140037;-86
2021/09/19 10:05:06;;;;;;;0.40;0.30;;;;;;;12.64;60.07;100089.88;113505;1193;94819;-85
2021/09/19 10:07:34;;;;;;;0.40;0.30;;;;;;;12.64;59.79;100092.73;113440;1193;109813;-84
2021/09/19 10:10:03;;;;;;;0.40;0.30;;;;;;;12.60;59.72;100093.78;113182;1194;137408;-86
2021/09/19 10:12:30;;;;;;;0.40;0.30;;;;;;;12.59;60.27;100097.91;113812;1193;94789;-85
2021/09/19 10:14:57;;;;;;;0.40;0.30;;;;;;;12.70;60.25;100100.32;113379;1193;138551;-83
2021/09/19 10:17:26;;;;;;;0.40;0.30;;;;;;;12.73;59.72;100101.99;113480;1193;95396;-85
2021/09/19 10:19:52;;;;;;;0.40;0.30;;;;;;;12.68;59.67;100103.06;113204;1193;139683;-87
2021/09/19 10:22:51;;;;;;;0.40;0.30;;;;;;;12.64;59.51;100104.31;113206;1193;94820;-85
2021/09/19 10:25:34;;;;;;;0.40;0.30;;;;;;;12.62;59.72;100102.08;113316;1193;95341;-86
2021/09/19 10:28:39;;;;;;;0.50;0.40;;;;;;;12.55;60.02;100108.77;113285;1193;139220;-88
2021/09/19 10:31:09;;;;;;;0.40;0.30;;;;;;;12.67;60.44;100105.42;113382;1193;109893;-84
2021/09/19 10:33:39;;;;;;;0.40;0.30;;;;;;;12.80;60.32;100112.58;113389;1193;139772;-82
2021/09/19 10:36:29;;;;;;;0.40;0.30;;;;;;;12.82;60.17;100113.20;114911;1193;93214;-89
2021/09/19 10:39:17;;;;;;;0.40;0.30;;;;;;;12.84;60.41;100114.73;113304;1193;137522;-84
2021/09/19 10:42:06;;;;;;;0.40;0.30;;;;;;;12.79;60.29;100115.63;113347;1193;109014;-87
2021/09/19 10:44:51;;;;;;;0.40;0.30;;;;;;;12.82;60.06;100115.34;113345;1193;138779;-85
2021/09/19 10:47:34;;;;;;;0.40;0.40;;;;;;;12.81;60.04;100116.27;113407;1193;94776;-83
2021/09/19 10:50:24;;;;;;;0.40;0.30;;;;;;;12.81;60.08;100113.79;113299;1193;139813;-86
2021/09/19 10:52:53;;;;;;;0.40;0.30;;;;;;;12.78;60.31;100112.13;113174;1193;109702;-84
2021/09/19 10:55:27;;;;;;;0.40;0.30;;;;;;;12.77;60.31;100111.98;113378;1193;94780;-84
2021/09/19 10:57:59;;;;;;;0.40;0.30;;;;;;;12.89;60.00;100115.77;113204;1194;138584;-88
2021/09/19 11:00:27;;;;;;;0.40;0.30;;;;;;;13.00;59.70;100117.12;113362;1193;110444;-86
2021/09/19 11:03:03;;;;;;;0.40;0.30;;;;;;;13.07;59.77;100116.11;113270;1193;139538;-86
2021/09/19 11:05:32;;;;;;;0.40;0.30;;;;;;;13.00;58.98;100119.80;113419;1193;95323;-85
2021/09/19 11:08:07;;;;;;;0.40;0.30;;;;;;;12.96;59.27;100122.27;113187;1193;139582;-87
2021/09/19 11:10:46;;;;;;;0.40;0.40;;;;;;;12.91;59.88;100119.60;113376;1194;109205;-87
2021/09/19 11:13:25;;;;;;;0.40;0.30;;;;;;;13.02;59.60;100119.52;113422;1193;109877;-90
2021/09/19 11:16:01;;;;;;;0.40;0.30;;;;;;;13.14;59.75;100116.36;112983;1193;139396;-88
2021/09/19 11:18:32;;;;;;;0.40;0.30;;;;;;;13.19;59.22;100115.99;113392;1193;94820;-84
2021/09/19 11:21:10;;;;;;;0.40;0.30;;;;;;;13.12;58.92;100116.63;113377;1194;139044;-85